createdAt,value
2022-09-24T00:01:47.993Z,97735.81
2022-09-24T00:05:50.030Z,97722.94
2022-09-24T00:09:52.043Z,97731.56
2022-09-24T00:13:56.122Z,97726.31
2022-09-24T00:17:58.166Z,97725.75
2022-09-24T00:22:00.273Z,97728.03
2022-09-24T00:26:20.790Z,97718.97
2022-09-24T00:30:22.918Z,97714.31
2022-09-24T00:34:25.012Z,97718.44
2022-09-24T00:38:27.077Z,97711.50
2022-09-24T00:42:32.273Z,97709.53
2022-09-24T00:46:42.879Z,97714.75
2022-09-24T00:50:45.126Z,97698.91
2022-09-24T00:54:48.032Z,97699.91
2022-09-24T00:58:52.846Z,97691.69
2022-09-24T01:03:04.982Z,97693.09
2022-09-24T01:07:07.042Z,97686.09
2022-09-24T01:11:21.446Z,97689.84
2022-09-24T01:15:33.925Z,97682.44
2022-09-24T01:20:02.949Z,97681.03
2022-09-24T01:24:25.059Z,97669.88
2022-09-24T01:29:08.670Z,97682.25
2022-09-24T01:33:16.299Z,97678.94
2022-09-24T01:37:22.881Z,97662.34
2022-09-24T01:41:25.012Z,97663.53
2022-09-24T01:45:32.398Z,97656.88
2022-09-24T01:49:34.413Z,97648.72
2022-09-24T01:54:03.558Z,97646.22
2022-09-24T01:58:10.493Z,97654.06
2022-09-24T02:02:27.720Z,97639.75
2022-09-24T02:06:40.169Z,97636.84
2022-09-24T02:10:50.684Z,97632.59
2022-09-24T02:14:57.290Z,97637.91
2022-09-24T02:19:04.158Z,97633.72
2022-09-24T02:23:07.845Z,97640.72
2022-09-24T02:27:10.301Z,97641.72
2022-09-24T02:31:21.964Z,97646.25
2022-09-24T02:35:24.440Z,97637.63
2022-09-24T02:39:26.695Z,97632.78
2022-09-24T02:43:28.852Z,97630.34
2022-09-24T02:47:31.031Z,97626.50
2022-09-24T02:51:33.138Z,97626.66
2022-09-24T02:55:35.151Z,97616.44
2022-09-24T02:59:37.179Z,97627.94
2022-09-24T03:03:39.206Z,97630.69
2022-09-24T03:07:41.923Z,97628.88
2022-09-24T03:11:43.972Z,97627.28
2022-09-24T03:15:46.606Z,97631.88
2022-09-24T03:19:50.031Z,97625.31
2022-09-24T03:23:52.037Z,97632.84
2022-09-24T03:27:54.089Z,97635.38
2022-09-24T03:31:56.150Z,97639.16
2022-09-24T03:36:04.369Z,97636.41
2022-09-24T03:40:07.846Z,97627.59
2022-09-24T03:44:10.067Z,97635.41
2022-09-24T03:48:12.270Z,97628.97
2022-09-24T03:52:14.299Z,97610.72
2022-09-24T03:56:16.381Z,97613.22
2022-09-24T04:00:18.497Z,97603.28
2022-09-24T04:04:20.622Z,97612.72
2022-09-24T04:08:23.673Z,97606.56
2022-09-24T04:12:25.685Z,97608.66
2022-09-24T04:16:27.929Z,97593.63
2022-09-24T04:20:31.089Z,97587.47
2022-09-24T04:24:33.098Z,97580.69
2022-09-24T04:28:35.540Z,97579.88
2022-09-24T04:32:37.533Z,97578.75
2022-09-24T04:36:39.555Z,97576.56
2022-09-24T04:40:41.617Z,97579.66
2022-09-24T04:44:46.890Z,97592.38
2022-09-24T04:48:49.887Z,97586.19
2022-09-24T04:52:52.267Z,97586.25
2022-09-24T04:56:54.357Z,97578.06
2022-09-24T05:00:56.475Z,97584.56
2022-09-24T05:04:58.702Z,97586.81
2022-09-24T05:09:00.948Z,97589.94
2022-09-24T05:13:03.231Z,97595.56
2022-09-24T05:17:05.270Z,97586.97
2022-09-24T05:21:07.399Z,97582.00
2022-09-24T05:25:09.781Z,97578.25
2022-09-24T05:29:12.104Z,97576.81
2022-09-24T05:33:14.357Z,97592.44
2022-09-24T05:37:16.511Z,97594.19
2022-09-24T05:41:18.555Z,97601.97
2022-09-24T05:45:20.631Z,97609.03
2022-09-24T05:49:22.897Z,97605.63
2022-09-24T05:53:24.894Z,97599.03
2022-09-24T05:57:26.948Z,97597.63
2022-09-24T06:01:31.875Z,97611.34
2022-09-24T06:05:35.588Z,97614.50
2022-09-24T06:09:37.603Z,97620.34
2022-09-24T06:13:39.946Z,97622.28
2022-09-24T06:17:42.033Z,97615.22
2022-09-24T06:21:44.021Z,97615.31
2022-09-24T06:25:50.607Z,97610.91
2022-09-24T06:29:52.642Z,97608.00
2022-09-24T06:33:57.907Z,97604.72
2022-09-24T06:37:59.982Z,97617.28
2022-09-24T06:42:02.591Z,97615.28
2022-09-24T06:46:10.233Z,97615.69
2022-09-24T06:50:12.384Z,97620.88
2022-09-24T06:54:14.475Z,97623.00
2022-09-24T06:58:21.323Z,97627.03
2022-09-24T07:02:23.501Z,97622.19
2022-09-24T07:06:25.658Z,97610.00
2022-09-24T07:10:29.842Z,97611.06
2022-09-24T07:14:31.884Z,97619.56
2022-09-24T07:18:33.917Z,97615.41
2022-09-24T07:22:40.407Z,97625.63
2022-09-24T07:26:42.440Z,97623.84
2022-09-24T07:30:44.446Z,97629.91
2022-09-24T07:34:46.519Z,97628.22
2022-09-24T07:38:48.834Z,97623.28
2022-09-24T07:42:50.888Z,97636.00
2022-09-24T07:46:53.186Z,97640.00
2022-09-24T07:50:55.531Z,97630.22
2022-09-24T07:54:57.583Z,97627.72
2022-09-24T07:58:59.632Z,97623.44
2022-09-24T08:03:03.259Z,97619.63
2022-09-24T08:07:05.324Z,97627.34
2022-09-24T08:11:10.579Z,97635.28
2022-09-24T08:15:12.754Z,97628.31
2022-09-24T08:19:16.903Z,97630.63
2022-09-24T08:23:19.045Z,97638.44
2022-09-24T08:27:21.055Z,97633.25
2022-09-24T08:31:23.187Z,97635.81
2022-09-24T08:35:25.457Z,97618.47
2022-09-24T08:39:27.799Z,97633.38
2022-09-24T08:43:44.687Z,97631.81
2022-09-24T08:47:56.684Z,97626.09
2022-09-24T08:52:26.449Z,97631.59
2022-09-24T08:56:34.284Z,97640.06
2022-09-24T09:01:01.033Z,97640.28
2022-09-24T09:05:18.113Z,97638.69
2022-09-24T09:09:24.574Z,97651.25
2022-09-24T09:13:35.702Z,97632.00
2022-09-24T09:17:49.895Z,97629.06
2022-09-24T09:22:01.538Z,97627.06
2022-09-24T09:26:06.757Z,97629.50
2022-09-24T09:30:14.590Z,97631.81
2022-09-24T09:34:46.855Z,97639.22
2022-09-24T09:39:04.465Z,97638.47
2022-09-24T09:43:11.450Z,97632.75
2022-09-24T09:47:45.890Z,97631.88
2022-09-24T09:51:49.704Z,97622.97
2022-09-24T09:56:02.929Z,97623.69
2022-09-24T10:00:05.611Z,97624.00
2022-09-24T10:04:41.507Z,97626.09
2022-09-24T10:08:43.518Z,97636.66
2022-09-24T10:12:46.060Z,97632.81
2022-09-24T10:16:54.151Z,97637.41
2022-09-24T10:20:57.796Z,97626.31
2022-09-24T10:25:01.051Z,97625.22
2022-09-24T10:29:23.028Z,97623.44
2022-09-24T10:33:26.730Z,97622.44
2022-09-24T10:37:30.056Z,97622.44
2022-09-24T10:41:32.211Z,97624.91
2022-09-24T10:45:48.090Z,97621.63
2022-09-24T10:50:07.679Z,97630.06
2022-09-24T10:54:18.998Z,97624.06
2022-09-24T10:58:48.406Z,97618.03
2022-09-24T11:02:56.616Z,97617.59
2022-09-24T11:07:20.212Z,97611.31
2022-09-24T11:11:55.390Z,97611.69
2022-09-24T11:16:14.291Z,97604.31
2022-09-24T11:20:27.007Z,97604.28
2022-09-24T11:24:46.539Z,97597.13
2022-09-24T11:29:11.354Z,97599.19
2022-09-24T11:33:35.133Z,97589.84
2022-09-24T11:37:58.942Z,97593.25
2022-09-24T11:42:24.250Z,97596.91
2022-09-24T11:47:03.453Z,97592.16
2022-09-24T11:51:17.769Z,97586.19
2022-09-24T11:55:34.176Z,97590.03
2022-09-24T11:59:45.185Z,97580.03
2022-09-24T12:03:53.036Z,97576.84
2022-09-24T12:08:07.519Z,97571.91
2022-09-24T12:12:22.737Z,97569.34
2022-09-24T12:16:28.532Z,97567.66
2022-09-24T12:20:31.904Z,97566.56
2022-09-24T12:24:42.706Z,97563.53
2022-09-24T12:29:36.332Z,97558.00
2022-09-24T12:34:03.395Z,97556.28
2022-09-24T12:38:23.607Z,97569.19
2022-09-24T12:42:34.790Z,97566.28
2022-09-24T12:46:48.485Z,97568.22
2022-09-24T12:50:57.939Z,97556.00
2022-09-24T12:55:03.774Z,97551.25
2022-09-24T12:59:05.837Z,97555.16
2022-09-24T13:03:37.150Z,97556.28
2022-09-24T13:07:44.134Z,97552.84
2022-09-24T13:11:46.636Z,97548.03
2022-09-24T13:16:03.389Z,97541.72
2022-09-24T13:20:08.742Z,97537.75
2022-09-24T13:24:11.733Z,97537.75
2022-09-24T13:28:29.236Z,97525.13
2022-09-24T13:33:09.892Z,97533.56
2022-09-24T13:37:21.658Z,97537.63
2022-09-24T13:41:38.985Z,97540.34
2022-09-24T13:45:45.243Z,97536.38
2022-09-24T13:49:51.226Z,97540.09
2022-09-24T13:53:57.378Z,97542.44
2022-09-24T13:57:59.559Z,97526.38
2022-09-24T14:02:01.794Z,97531.56
2022-09-24T14:06:12.108Z,97524.56
2022-09-24T14:10:15.026Z,97524.81
2022-09-24T14:14:21.012Z,97521.16
2022-09-24T14:18:24.363Z,97526.28
2022-09-24T14:22:36.547Z,97519.38
2022-09-24T14:26:44.243Z,97527.16
2022-09-24T14:30:53.993Z,97522.63
2022-09-24T14:34:59.743Z,97513.91
2022-09-24T14:39:05.294Z,97515.84
2022-09-24T14:43:20.367Z,97515.59
2022-09-24T14:47:28.276Z,97521.44
2022-09-24T14:51:31.840Z,97513.72
2022-09-24T14:55:40.151Z,97511.31
2022-09-24T14:59:42.542Z,97514.84
2022-09-24T15:03:54.366Z,97514.25
2022-09-24T15:08:23.102Z,97507.25
2022-09-24T15:12:34.008Z,97505.66
2022-09-24T15:16:37.509Z,97506.28
2022-09-24T15:20:39.501Z,97507.25
2022-09-24T15:24:41.545Z,97514.03
2022-09-24T15:28:43.553Z,97513.81
2022-09-24T15:32:46.133Z,97516.25
2022-09-24T15:36:49.418Z,97517.13
2022-09-24T15:40:53.708Z,97519.94
2022-09-24T15:44:57.702Z,97512.44
2022-09-24T15:48:59.684Z,97514.88
2022-09-24T15:53:02.350Z,97512.50
2022-09-24T15:57:04.399Z,97513.22
2022-09-24T16:01:06.509Z,97507.53
2022-09-24T16:05:13.013Z,97504.38
2022-09-24T16:09:15.023Z,97503.78
2022-09-24T16:13:17.864Z,97512.13
2022-09-24T16:17:19.861Z,97518.50
2022-09-24T16:21:21.986Z,97509.81
2022-09-24T16:25:24.072Z,97513.94
2022-09-24T16:29:26.374Z,97513.44
2022-09-24T16:33:28.370Z,97515.50
2022-09-24T16:37:30.425Z,97525.22
2022-09-24T16:41:34.429Z,97517.53
2022-09-24T16:45:36.556Z,97519.69
2022-09-24T16:49:38.551Z,97521.59
2022-09-24T16:53:43.865Z,97530.75
2022-09-24T16:57:48.374Z,97521.59
2022-09-24T17:01:50.525Z,97535.91
2022-09-24T17:05:52.565Z,97533.59
2022-09-24T17:10:13.086Z,97523.50
2022-09-24T17:14:16.968Z,97525.41
2022-09-24T17:18:18.993Z,97527.03
2022-09-24T17:22:21.029Z,97526.75
2022-09-24T17:26:23.312Z,97529.97
2022-09-24T17:30:26.780Z,97544.75
2022-09-24T17:34:28.897Z,97546.78
2022-09-24T17:38:32.718Z,97541.84
2022-09-24T17:42:34.791Z,97548.28
2022-09-24T17:46:36.818Z,97553.91
2022-09-24T17:50:38.860Z,97551.59
2022-09-24T17:54:40.934Z,97558.72
2022-09-24T17:58:46.775Z,97554.47
2022-09-24T18:02:48.850Z,97566.16
2022-09-24T18:06:50.877Z,97569.72
2022-09-24T18:11:03.623Z,97574.59
2022-09-24T18:15:06.020Z,97589.53
2022-09-24T18:19:10.840Z,97598.28
2022-09-24T18:23:13.478Z,97609.50
2022-09-24T18:27:16.015Z,97606.22
2022-09-24T18:31:20.311Z,97619.50
2022-09-24T18:35:22.309Z,97619.63
2022-09-24T18:39:25.676Z,97625.69
2022-09-24T18:43:28.570Z,97618.88
2022-09-24T18:47:30.872Z,97624.47
2022-09-24T18:51:35.413Z,97615.22
2022-09-24T18:55:40.550Z,97607.81
2022-09-24T18:59:46.708Z,97602.50
2022-09-24T19:03:49.188Z,97604.75
2022-09-24T19:07:51.168Z,97604.94
2022-09-24T19:11:53.153Z,97614.31
2022-09-24T19:15:55.255Z,97608.47
2022-09-24T19:19:59.053Z,97612.53
2022-09-24T19:24:01.319Z,97610.34
2022-09-24T19:28:05.428Z,97608.66
2022-09-24T19:32:07.673Z,97618.34
2022-09-24T19:36:10.274Z,97609.03
2022-09-24T19:40:12.491Z,97606.22
2022-09-24T19:44:16.511Z,97604.44
2022-09-24T19:48:19.623Z,97607.63
2022-09-24T19:52:21.617Z,97614.41
2022-09-24T19:56:25.403Z,97612.16
2022-09-24T20:00:27.384Z,97614.03
2022-09-24T20:04:29.590Z,97619.50
2022-09-24T20:08:31.556Z,97624.41
2022-09-24T20:12:34.204Z,97621.75
2022-09-24T20:16:36.317Z,97625.22
2022-09-24T20:20:41.990Z,97617.22
2022-09-24T20:24:44.011Z,97612.81
2022-09-24T20:28:46.464Z,97617.41
2022-09-24T20:32:48.501Z,97617.63
2022-09-24T20:36:50.854Z,97627.41
2022-09-24T20:40:52.955Z,97624.06
2022-09-24T20:44:56.023Z,97630.34
2022-09-24T20:48:59.855Z,97633.38
2022-09-24T20:53:01.944Z,97618.16
2022-09-24T20:57:04.106Z,97622.84
2022-09-24T21:01:07.319Z,97626.03
2022-09-24T21:05:10.351Z,97618.97
2022-09-24T21:09:13.731Z,97620.59
2022-09-24T21:13:15.754Z,97616.25
2022-09-24T21:17:18.514Z,97614.47
2022-09-24T21:21:26.355Z,97617.19
2022-09-24T21:25:52.882Z,97624.00
2022-09-24T21:29:50.353Z,97621.28
2022-09-24T21:33:53.325Z,97632.81
2022-09-24T21:37:55.721Z,97623.41
2022-09-24T21:41:59.259Z,97625.19
2022-09-24T21:46:05.255Z,97626.97
2022-09-24T21:50:09.678Z,97633.19
2022-09-24T21:54:17.256Z,97626.78
2022-09-24T21:58:19.547Z,97627.34
2022-09-24T22:02:21.619Z,97641.28
2022-09-24T22:06:27.027Z,97631.47
2022-09-24T22:10:29.025Z,97639.88
2022-09-24T22:14:34.497Z,97636.38
2022-09-24T22:18:37.662Z,97639.78
2022-09-24T22:22:39.637Z,97639.78
2022-09-24T22:26:41.616Z,97634.69
2022-09-24T22:30:44.572Z,97635.63
2022-09-24T22:35:05.566Z,97633.94
2022-09-24T22:39:07.934Z,97634.03
2022-09-24T22:43:10.012Z,97632.97
2022-09-24T22:47:12.071Z,97634.88
2022-09-24T22:51:14.354Z,97629.78
2022-09-24T22:55:16.414Z,97631.31
2022-09-24T22:59:18.418Z,97627.91
2022-09-24T23:03:20.515Z,97636.59
2022-09-24T23:07:23.080Z,97636.00
2022-09-24T23:11:30.575Z,97631.03
2022-09-24T23:15:32.565Z,97629.41
2022-09-24T23:19:49.837Z,97624.91
2022-09-24T23:23:54.104Z,97625.53
2022-09-24T23:27:56.089Z,97624.88
2022-09-24T23:31:58.062Z,97622.59
2022-09-24T23:36:00.486Z,97620.25
2022-09-24T23:40:03.165Z,97623.66
2022-09-24T23:44:05.269Z,97620.47
2022-09-24T23:48:07.283Z,97616.63
2022-09-24T23:52:09.288Z,97622.25
2022-09-24T23:56:11.443Z,97625.34
